Observations for TREVISO CIV IT-AFB, Italy (LIPH)

LIPH 201950Z 22001KT 3000 BR NSC 05/04 Q1026
LIPH 201920Z VRB02KT 3000 BR NSC 05/04 Q1025
LIPH 201850Z 28001KT 3000 BR NSC 05/04 Q1025
LIPH 201820Z 28002KT 3000 BR NSC 06/04 Q1025
LIPH 201750Z 23003KT 3000 BR NSC 07/05 Q1025
LIPH 201720Z 22002KT 3000 BR NSC 08/05 Q1025
LIPH 201650Z 22003KT 3000 BR NSC 09/05 Q1024
LIPH 201620Z 20003KT 4000 BR NSC 09/05 Q1024
LIPH 201550Z 19003KT 4000 BR NSC 10/05 Q1024
LIPH 201520Z 22003KT 4000 BR NSC 10/05 Q1024
LIPH 201450Z 20003KT 160V220 4000 BR NSC 10/05 Q1024
LIPH 201420Z 17004KT 110V210 4000 BR SCT020 10/05 Q1024 
LIPH 201350Z 21005KT 150V250 4000 BR SCT020 10/05 Q1024 
LIPH 201320Z 18003KT 120V240 4000 BR SCT020 10/05 Q1024 
LIPH 201250Z 21003KT 160V270 4000 BR BKN020 10/05 Q1025 
LIPH 201220Z 25003KT 160V330 4000 BR BKN020 10/04 Q1025 
LIPH 201150Z VRB03KT 4000 BR BKN020 10/05 Q1025 
LIPH 201120Z 26003KT 210V320 3000 BR BKN020 10/05 Q1025 
LIPH 201050Z 26003KT 230V310 3000 BR SCT010 BKN020 09/04 Q1025  
LIPH 201020Z 29003KT 230V360 2500 BR SCT010 OVC020 09/04 Q1025  
LIPH 200950Z 30003KT 240V340 2500 BR SCT010 OVC020 08/05 Q1025  
LIPH 200920Z VRB02KT 2500 BR SCT010 OVC020 08/05 Q1025  
LIPH 200850Z VRB02KT 1500 BR SCT010 OVC015 08/05 Q1025  
LIPH 200820Z 36003KT 330V030 1500 BR SCT010 BKN015 07/05 Q1025  
LIPH 200750Z VRB02KT 1500 BR SCT010 BKN015 07/05 Q1025  
LIPH 200720Z VRB01KT 1500 BR SCT010 BKN015 07/05 Q1024  
LIPH 200650Z 05002KT 1500 BR SCT010 OVC015 07/05 Q1024  
LIPH 200620Z 35004KT 1500 BR SCT010 OVC015 07/05 Q1024  
LIPH 200550Z AUTO 33004KT 1900 BR OVC016/// 07/05 Q1023 
LIPH 200520Z AUTO 03002KT 2000 BR OVC016/// 07/05 Q1023 
LIPH 200520Z AUTO 03002KT 2000 BR OVC016 07/05 Q1023
LIPH 200450Z AUTO VRB01KT 2000 BR OVC017/// 07/05 Q1023 
LIPH 200450Z AUTO VRB01KT 2000 BR OVC017 07/05 Q1023
LIPH 200420Z AUTO 02003KT 2000 BR OVC017/// 07/05 Q1023 
LIPH 200420Z AUTO 02003KT 2000 BR OVC017 07/05 Q1023
LIPH 200350Z AUTO VRB02KT 2000 BR OVC017/// 07/05 Q1023 
LIPH 200350Z AUTO VRB02KT 2000 BR OVC017 07/05 Q1023
LIPH 200320Z AUTO 01002KT 2000 BR OVC017/// 07/05 Q1023 
LIPH 200320Z AUTO 01002KT 2000 BR OVC017 07/05 Q1023
LIPH 200250Z AUTO 36003KT 2000 BR OVC018/// 07/05 Q1023 
LIPH 200250Z AUTO 36003KT 2000 BR OVC018 07/05 Q1023
LIPH 200220Z AUTO VRB01KT 2200 BR OVC018/// 07/05 Q1023 
LIPH 200220Z AUTO VRB01KT 2200 BR OVC018 07/05 Q1023
LIPH 200150Z AUTO VRB02KT 2100 BR OVC018/// 07/05 Q1023 
LIPH 200150Z AUTO VRB02KT 2100 BR OVC018 07/05 Q1023
LIPH 200120Z AUTO 03003KT 2100 BR OVC018/// 07/05 Q1024 
LIPH 200120Z AUTO 03003KT 2100 BR OVC018 07/05 Q1024
LIPH 200050Z AUTO 04002KT 2000 BR OVC018/// 07/05 Q1024 
LIPH 200050Z AUTO 04002KT 2000 BR OVC018 07/05 Q1024
LIPH 200020Z AUTO 03002KT 2000 BR OVC019/// 07/05 Q1023 
LIPH 200020Z AUTO 03002KT 2000 BR OVC019 07/05 Q1023
LIPH 192350Z AUTO 04003KT 2000 BR OVC018/// 07/05 Q1023 
LIPH 192350Z AUTO 04003KT 2000 BR OVC018 07/05 Q1023
LIPH 192320Z AUTO 04003KT 350V070 2000 BR OVC018/// 07/05 Q1023 
LIPH 192250Z AUTO 02004KT 2100 BR OVC018/// 07/05 Q1023 
LIPH 192250Z AUTO 02004KT 2100 BR OVC018 07/05 Q1023
LIPH 192220Z AUTO 04003KT 2000 BR OVC017/// 07/05 Q1023 
LIPH 192220Z AUTO 04003KT 2000 BR OVC017 07/05 Q1023
LIPH 192150Z 06002KT 2000 BR BKN010 07/05 Q1023 
LIPH 192120Z 04002KT 2000 BR BKN010 07/05 Q1023 
LIPH 192050Z VRB02KT 2000 BR BKN010 07/05 Q1023 
LIPH 192020Z 02003KT 2000 BR BKN010 07/05 Q1023 
LIPH 191950Z 01002KT 2000 BR BKN010 07/05 Q1023 
LIPH 191920Z VRB02KT 2500 BR BKN010 07/05 Q1023